sensor_id;sensor_type;location;lat;lon;timestamp;pressure;altitude;pressure_sealevel;temperature;humidity
49393;BME280;35268;42.642;23.308;2024-01-30T00:02:18;95795.00;;;0.62;56.06
49393;BME280;35268;42.642;23.308;2024-01-30T00:04:43;95806.69;;;0.53;57.11
49393;BME280;35268;42.642;23.308;2024-01-30T00:07:08;95801.25;;;0.48;56.66
49393;BME280;35268;42.642;23.308;2024-01-30T00:09:34;95806.28;;;0.43;56.65
49393;BME280;35268;42.642;23.308;2024-01-30T00:11:59;95806.69;;;0.39;56.77
49393;BME280;35268;42.642;23.308;2024-01-30T00:14:25;95807.50;;;0.40;56.42
49393;BME280;35268;42.642;23.308;2024-01-30T00:16:51;95801.66;;;0.38;55.71
49393;BME280;35268;42.642;23.308;2024-01-30T00:19:17;95812.56;;;0.35;55.63
49393;BME280;35268;42.642;23.308;2024-01-30T00:21:42;95806.91;;;0.31;55.65
49393;BME280;35268;42.642;23.308;2024-01-30T00:24:08;95811.72;;;0.34;56.63
49393;BME280;35268;42.642;23.308;2024-01-30T00:26:33;95804.69;;;0.35;57.28
49393;BME280;35268;42.642;23.308;2024-01-30T00:28:59;95807.50;;;0.33;56.86
49393;BME280;35268;42.642;23.308;2024-01-30T00:31:24;95806.91;;;0.31;55.55
49393;BME280;35268;42.642;23.308;2024-01-30T00:33:50;95803.06;;;0.21;56.03
49393;BME280;35268;42.642;23.308;2024-01-30T00:36:15;95807.09;;;0.16;57.07
49393;BME280;35268;42.642;23.308;2024-01-30T00:38:41;95802.84;;;0.15;57.31
49393;BME280;35268;42.642;23.308;2024-01-30T00:41:09;95804.25;;;0.11;57.63
49393;BME280;35268;42.642;23.308;2024-01-30T00:43:35;95811.13;;;0.12;57.57
49393;BME280;35268;42.642;23.308;2024-01-30T00:46:01;95800.63;;;0.12;58.01
49393;BME280;35268;42.642;23.308;2024-01-30T00:48:26;95805.28;;;0.10;58.12
49393;BME280;35268;42.642;23.308;2024-01-30T00:50:51;95796.19;;;0.06;58.52
49393;BME280;35268;42.642;23.308;2024-01-30T00:53:17;95807.28;;;0.08;58.52
49393;BME280;35268;42.642;23.308;2024-01-30T00:55:43;95807.06;;;0.10;58.42
49393;BME280;35268;42.642;23.308;2024-01-30T00:58:08;95802.44;;;0.12;58.45
49393;BME280;35268;42.642;23.308;2024-01-30T01:00:34;95803.88;;;0.14;58.37
49393;BME280;35268;42.642;23.308;2024-01-30T01:02:59;95793.97;;;0.16;58.60
49393;BME280;35268;42.642;23.308;2024-01-30T01:05:25;95789.34;;;0.18;58.67
49393;BME280;35268;42.642;23.308;2024-01-30T01:07:51;95794.38;;;0.20;58.37
49393;BME280;35268;42.642;23.308;2024-01-30T01:10:17;95785.69;;;0.19;58.37
49393;BME280;35268;42.642;23.308;2024-01-30T01:12:43;95782.47;;;0.17;58.22
49393;BME280;35268;42.642;23.308;2024-01-30T01:15:09;95793.75;;;0.18;58.89
49393;BME280;35268;42.642;23.308;2024-01-30T01:17:35;95802.44;;;0.12;58.95
49393;BME280;35268;42.642;23.308;2024-01-30T01:20:01;95791.13;;;0.05;59.03
49393;BME280;35268;42.642;23.308;2024-01-30T01:22:27;95791.09;;;-0.09;59.33
49393;BME280;35268;42.642;23.308;2024-01-30T01:24:52;95790.66;;;-0.19;59.44
49393;BME280;35268;42.642;23.308;2024-01-30T01:27:18;95797.31;;;-0.16;59.34
49393;BME280;35268;42.642;23.308;2024-01-30T01:29:43;95798.13;;;-0.23;59.83
49393;BME280;35268;42.642;23.308;2024-01-30T01:32:09;95798.91;;;-0.29;59.97
49393;BME280;35268;42.642;23.308;2024-01-30T01:34:34;95802.13;;;-0.27;59.98
49393;BME280;35268;42.642;23.308;2024-01-30T01:36:59;95798.53;;;-0.26;60.22
49393;BME280;35268;42.642;23.308;2024-01-30T01:39:25;95797.91;;;-0.28;60.45
49393;BME280;35268;42.642;23.308;2024-01-30T01:41:51;95802.53;;;-0.30;60.45
49393;BME280;35268;42.642;23.308;2024-01-30T01:44:17;95802.94;;;-0.33;60.05
49393;BME280;35268;42.642;23.308;2024-01-30T01:46:43;95805.94;;;-0.36;60.05
49393;BME280;35268;42.642;23.308;2024-01-30T01:49:09;95806.56;;;-0.34;60.27
49393;BME280;35268;42.642;23.308;2024-01-30T01:51:35;95806.56;;;-0.34;60.10
49393;BME280;35268;42.642;23.308;2024-01-30T01:54:05;95805.94;;;-0.36;60.77
49393;BME280;35268;42.642;23.308;2024-01-30T01:56:31;95803.34;;;-0.36;61.01
49393;BME280;35268;42.642;23.308;2024-01-30T01:59:01;95798.91;;;-0.35;61.44
49393;BME280;35268;42.642;23.308;2024-01-30T02:01:31;95801.69;;;-0.37;61.13
49393;BME280;35268;42.642;23.308;2024-01-30T02:03:58;95804.94;;;-0.35;61.52
49393;BME280;35268;42.642;23.308;2024-01-30T02:06:24;95802.94;;;-0.33;61.58
49393;BME280;35268;42.642;23.308;2024-01-30T02:08:49;95809.78;;;-0.32;61.74
49393;BME280;35268;42.642;23.308;2024-01-30T02:11:15;95803.34;;;-0.29;61.23
49393;BME280;35268;42.642;23.308;2024-01-30T02:13:42;95822.72;;;-0.30;60.76
49393;BME280;35268;42.642;23.308;2024-01-30T02:16:07;95816.03;;;-0.33;60.34
49393;BME280;35268;42.642;23.308;2024-01-30T02:18:33;95813.63;;;-0.28;59.74
49393;BME280;35268;42.642;23.308;2024-01-30T02:20:59;95805.50;;;-0.46;58.73
49393;BME280;35268;42.642;23.308;2024-01-30T02:23:30;95806.94;;;-0.37;59.08
49393;BME280;35268;42.642;23.308;2024-01-30T02:25:58;95805.38;;;-0.25;60.23
49393;BME280;35268;42.642;23.308;2024-01-30T02:28:23;95807.59;;;-0.22;60.58
49393;BME280;35268;42.642;23.308;2024-01-30T02:30:48;95804.56;;;-0.18;60.05
49393;BME280;35268;42.642;23.308;2024-01-30T02:33:14;95803.19;;;-0.14;59.79
49393;BME280;35268;42.642;23.308;2024-01-30T02:35:39;95796.53;;;-0.10;59.13
49393;BME280;35268;42.642;23.308;2024-01-30T02:38:05;95804.63;;;-0.05;58.95
49393;BME280;35268;42.642;23.308;2024-01-30T02:40:31;95807.25;;;-0.05;58.67
49393;BME280;35268;42.642;23.308;2024-01-30T02:42:58;95795.97;;;-0.06;58.59
49393;BME280;35268;42.642;23.308;2024-01-30T02:45:23;95810.47;;;-0.03;58.22
49393;BME280;35268;42.642;23.308;2024-01-30T02:47:49;95797.97;;;-0.01;57.71
49393;BME280;35268;42.642;23.308;2024-01-30T02:50:14;95801.63;;;0.05;57.59
49393;BME280;35268;42.642;23.308;2024-01-30T02:52:40;95805.66;;;0.07;57.11
49393;BME280;35268;42.642;23.308;2024-01-30T02:55:06;95801.63;;;0.11;56.85
49393;BME280;35268;42.642;23.308;2024-01-30T02:57:31;95804.84;;;0.13;56.90
49393;BME280;35268;42.642;23.308;2024-01-30T02:59:57;95808.09;;;0.15;57.17
49393;BME280;35268;42.642;23.308;2024-01-30T03:02:22;95801.84;;;0.16;56.88
49393;BME280;35268;42.642;23.308;2024-01-30T03:04:47;95804.84;;;0.20;56.30
49393;BME280;35268;42.642;23.308;2024-01-30T03:07:13;95798.81;;;0.19;56.81
49393;BME280;35268;42.642;23.308;2024-01-30T03:09:38;95795.81;;;0.23;56.58
49393;BME280;35268;42.642;23.308;2024-01-30T03:12:04;95796.00;;;0.28;56.12
49393;BME280;35268;42.642;23.308;2024-01-30T03:14:31;95794.41;;;0.27;56.13
49393;BME280;35268;42.642;23.308;2024-01-30T03:16:57;95792.16;;;0.30;56.22
49393;BME280;35268;42.642;23.308;2024-01-30T03:19:22;95797.81;;;0.34;56.52
49393;BME280;35268;42.642;23.308;2024-01-30T03:21:48;95790.75;;;0.34;56.78
49393;BME280;35268;42.642;23.308;2024-01-30T03:24:13;95797.19;;;0.38;55.93
49393;BME280;35268;42.642;23.308;2024-01-30T03:26:39;95797.63;;;0.35;55.85
49393;BME280;35268;42.642;23.308;2024-01-30T03:29:04;95797.81;;;0.34;56.08
49393;BME280;35268;42.642;23.308;2024-01-30T03:31:29;95789.94;;;0.34;55.89
49393;BME280;35268;42.642;23.308;2024-01-30T03:33:55;95783.28;;;0.25;55.34
49393;BME280;35268;42.642;23.308;2024-01-30T03:36:20;95786.91;;;0.24;55.07
49393;BME280;35268;42.642;23.308;2024-01-30T03:38:46;95789.13;;;0.20;55.26
49393;BME280;35268;42.642;23.308;2024-01-30T03:41:11;95793.38;;;0.21;55.06
49393;BME280;35268;42.642;23.308;2024-01-30T03:43:36;95781.47;;;0.25;55.04
49393;BME280;35268;42.642;23.308;2024-01-30T03:46:02;95777.03;;;0.26;55.22
49393;BME280;35268;42.642;23.308;2024-01-30T03:48:28;95779.66;;;0.32;55.13
49393;BME280;35268;42.642;23.308;2024-01-30T03:50:54;95780.25;;;0.34;55.42
49393;BME280;35268;42.642;23.308;2024-01-30T03:53:19;95783.69;;;0.35;54.85
49393;BME280;35268;42.642;23.308;2024-01-30T03:55:45;95778.22;;;0.36;54.86
49393;BME280;35268;42.642;23.308;2024-01-30T03:58:10;95786.31;;;0.35;54.82
49393;BME280;35268;42.642;23.308;2024-01-30T04:00:36;95770.97;;;0.32;54.86
49393;BME280;35268;42.642;23.308;2024-01-30T04:03:02;95780.44;;;0.19;54.67
49393;BME280;35268;42.642;23.308;2024-01-30T04:05:27;95776.63;;;0.22;54.73
49393;BME280;35268;42.642;23.308;2024-01-30T04:07:53;95782.69;;;0.29;54.50
49393;BME280;35268;42.642;23.308;2024-01-30T04:10:18;95779.88;;;0.31;54.53
49393;BME280;35268;42.642;23.308;2024-01-30T04:12:43;95769.16;;;0.32;54.48
49393;BME280;35268;42.642;23.308;2024-01-30T04:15:09;95772.38;;;0.34;54.44
49393;BME280;35268;42.642;23.308;2024-01-30T04:17:34;95772.38;;;0.34;54.43
49393;BME280;35268;42.642;23.308;2024-01-30T04:19:59;95774.41;;;0.32;55.43
49393;BME280;35268;42.642;23.308;2024-01-30T04:22:25;95779.66;;;0.32;55.75
49393;BME280;35268;42.642;23.308;2024-01-30T04:24:50;95773.59;;;0.32;55.34
49393;BME280;35268;42.642;23.308;2024-01-30T04:27:16;95779.44;;;0.34;55.42
49393;BME280;35268;42.642;23.308;2024-01-30T04:29:41;95781.28;;;0.33;55.45
49393;BME280;35268;42.642;23.308;2024-01-30T04:32:07;95782.06;;;0.34;55.34
49393;BME280;35268;42.642;23.308;2024-01-30T04:34:32;95785.50;;;0.34;54.89
49393;BME280;35268;42.642;23.308;2024-01-30T04:36:58;95781.69;;;0.37;54.30
49393;BME280;35268;42.642;23.308;2024-01-30T04:39:23;95779.44;;;0.34;53.85
49393;BME280;35268;42.642;23.308;2024-01-30T04:41:48;95781.47;;;0.32;53.67
49393;BME280;35268;42.642;23.308;2024-01-30T04:44:14;95784.50;;;0.29;53.49
49393;BME280;35268;42.642;23.308;2024-01-30T04:46:39;95777.25;;;0.31;52.52
49393;BME280;35268;42.642;23.308;2024-01-30T04:49:05;95785.50;;;0.28;52.86
49393;BME280;35268;42.642;23.308;2024-01-30T04:51:32;95787.53;;;0.26;52.33
49393;BME280;35268;42.642;23.308;2024-01-30T04:53:58;95782.69;;;0.23;52.49
49393;BME280;35268;42.642;23.308;2024-01-30T04:56:24;95791.34;;;0.23;52.09
49393;BME280;35268;42.642;23.308;2024-01-30T04:58:49;95794.16;;;0.22;52.22
49393;BME280;35268;42.642;23.308;2024-01-30T05:01:16;95799.84;;;0.18;52.91
49393;BME280;35268;42.642;23.308;2024-01-30T05:03:41;95800.22;;;0.15;53.31
49393;BME280;35268;42.642;23.308;2024-01-30T05:06:07;95801.44;;;0.13;53.81
49393;BME280;35268;42.642;23.308;2024-01-30T05:08:32;95809.28;;;0.06;53.96
49393;BME280;35268;42.642;23.308;2024-01-30T05:11:00;95800.78;;;-0.03;54.15
49393;BME280;35268;42.642;23.308;2024-01-30T05:13:26;95809.44;;;-0.02;54.49
49393;BME280;35268;42.642;23.308;2024-01-30T05:15:51;95803.81;;;0.01;54.67
49393;BME280;35268;42.642;23.308;2024-01-30T05:18:16;95821.78;;;0.04;54.99
49393;BME280;35268;42.642;23.308;2024-01-30T05:20:42;95815.94;;;0.02;55.18
49393;BME280;35268;42.642;23.308;2024-01-30T05:23:07;95811.09;;;-0.01;55.49
49393;BME280;35268;42.642;23.308;2024-01-30T05:25:33;95814.09;;;-0.04;55.25
49393;BME280;35268;42.642;23.308;2024-01-30T05:27:58;95813.28;;;-0.11;54.98
49393;BME280;35268;42.642;23.308;2024-01-30T05:30:24;95825.16;;;-0.15;55.26
49393;BME280;35268;42.642;23.308;2024-01-30T05:32:49;95818.28;;;-0.16;55.65
49393;BME280;35268;42.642;23.308;2024-01-30T05:35:15;95810.84;;;-0.19;54.88
49393;BME280;35268;42.642;23.308;2024-01-30T05:37:40;95817.28;;;-0.22;54.82
49393;BME280;35268;42.642;23.308;2024-01-30T05:40:06;95822.91;;;-0.25;54.85
49393;BME280;35268;42.642;23.308;2024-01-30T05:42:32;95814.84;;;-0.30;54.86
49393;BME280;35268;42.642;23.308;2024-01-30T05:44:57;95820.69;;;-0.28;55.19
49393;BME280;35268;42.642;23.308;2024-01-30T05:47:23;95824.50;;;-0.31;55.61
49393;BME280;35268;42.642;23.308;2024-01-30T05:49:48;95820.88;;;-0.30;55.35
49393;BME280;35268;42.642;23.308;2024-01-30T05:52:14;95818.28;;;-0.30;55.01
49393;BME280;35268;42.642;23.308;2024-01-30T05:54:40;95814.25;;;-0.32;54.96
49393;BME280;35268;42.642;23.308;2024-01-30T05:57:06;95808.56;;;-0.36;55.36
49393;BME280;35268;42.642;23.308;2024-01-30T05:59:31;95811.38;;;-0.37;55.48
49393;BME280;35268;42.642;23.308;2024-01-30T06:01:57;95807.16;;;-0.38;55.92
49393;BME280;35268;42.642;23.308;2024-01-30T06:04:23;95808.34;;;-0.41;56.09
49393;BME280;35268;42.642;23.308;2024-01-30T06:06:48;95811.38;;;-0.44;56.17
49393;BME280;35268;42.642;23.308;2024-01-30T06:09:14;95810.16;;;-0.42;56.03
49393;BME280;35268;42.642;23.308;2024-01-30T06:11:39;95805.09;;;-0.43;56.14
49393;BME280;35268;42.642;23.308;2024-01-30T06:14:05;95810.97;;;-0.41;56.28
49393;BME280;35268;42.642;23.308;2024-01-30T06:16:30;95812.78;;;-0.42;55.98
49393;BME280;35268;42.642;23.308;2024-01-30T06:18:56;95813.38;;;-0.46;56.18
49393;BME280;35268;42.642;23.308;2024-01-30T06:21:24;95810.13;;;-0.48;56.02
49393;BME280;35268;42.642;23.308;2024-01-30T06:23:49;95819.00;;;-0.49;55.91
49393;BME280;35268;42.642;23.308;2024-01-30T06:26:14;95822.44;;;-0.49;56.04
49393;BME280;35268;42.642;23.308;2024-01-30T06:28:40;95824.84;;;-0.47;55.73
49393;BME280;35268;42.642;23.308;2024-01-30T06:31:05;95822.84;;;-0.45;55.88
49393;BME280;35268;42.642;23.308;2024-01-30T06:33:31;95825.06;;;-0.42;55.97
49393;BME280;35268;42.642;23.308;2024-01-30T06:35:56;95816.41;;;-0.43;55.65
49393;BME280;35268;42.642;23.308;2024-01-30T06:38:21;95817.63;;;-0.38;55.06
49393;BME280;35268;42.642;23.308;2024-01-30T06:40:47;95824.09;;;-0.34;54.60
49393;BME280;35268;42.642;23.308;2024-01-30T06:43:12;95819.47;;;-0.32;54.36
49393;BME280;35268;42.642;23.308;2024-01-30T06:45:38;95823.94;;;-0.26;53.50
49393;BME280;35268;42.642;23.308;2024-01-30T06:48:03;95821.09;;;-0.25;53.36
49393;BME280;35268;42.642;23.308;2024-01-30T06:50:29;95821.31;;;-0.26;52.80
49393;BME280;35268;42.642;23.308;2024-01-30T06:52:54;95827.97;;;-0.24;52.28
49393;BME280;35268;42.642;23.308;2024-01-30T06:55:19;95818.09;;;-0.22;51.46
49393;BME280;35268;42.642;23.308;2024-01-30T06:57:45;95824.31;;;-0.23;51.16
49393;BME280;35268;42.642;23.308;2024-01-30T07:00:11;95813.84;;;-0.23;50.99
49393;BME280;35268;42.642;23.308;2024-01-30T07:02:36;95824.72;;;-0.26;50.14
49393;BME280;35268;42.642;23.308;2024-01-30T07:05:05;95834.00;;;-0.23;50.18
49393;BME280;35268;42.642;23.308;2024-01-30T07:07:31;95822.31;;;-0.21;50.32
49393;BME280;35268;42.642;23.308;2024-01-30T07:09:56;95833.22;;;-0.17;50.74
49393;BME280;35268;42.642;23.308;2024-01-30T07:12:24;95831.22;;;-0.08;50.81
49393;BME280;35268;42.642;23.308;2024-01-30T07:14:51;95831.25;;;-0.02;50.37
49393;BME280;35268;42.642;23.308;2024-01-30T07:17:17;95832.28;;;0.04;49.94
49393;BME280;35268;42.642;23.308;2024-01-30T07:19:42;95824.22;;;0.12;49.31
49393;BME280;35268;42.642;23.308;2024-01-30T07:22:08;95829.66;;;0.17;49.46
49393;BME280;35268;42.642;23.308;2024-01-30T07:24:34;95829.28;;;0.27;49.14
49393;BME280;35268;42.642;23.308;2024-01-30T07:26:59;95836.97;;;0.35;48.97
49393;BME280;35268;42.642;23.308;2024-01-30T07:29:25;95831.13;;;0.40;48.95
49393;BME280;35268;42.642;23.308;2024-01-30T07:31:50;95826.47;;;0.42;49.10
49393;BME280;35268;42.642;23.308;2024-01-30T07:34:16;95832.31;;;0.44;48.88
49393;BME280;35268;42.642;23.308;2024-01-30T07:36:41;95834.34;;;0.49;48.53
49393;BME280;35268;42.642;23.308;2024-01-30T07:39:07;95833.94;;;0.58;47.82
49393;BME280;35268;42.642;23.308;2024-01-30T07:41:32;95829.09;;;0.62;47.96
49393;BME280;35268;42.642;23.308;2024-01-30T07:43:58;95829.09;;;0.69;47.82
49393;BME280;35268;42.642;23.308;2024-01-30T07:46:23;95819.41;;;0.76;47.39
49393;BME280;35268;42.642;23.308;2024-01-30T07:48:49;95828.31;;;0.82;47.31
49393;BME280;35268;42.642;23.308;2024-01-30T07:51:14;95819.38;;;0.89;47.16
49393;BME280;35268;42.642;23.308;2024-01-30T07:53:43;95815.94;;;0.95;46.88
49393;BME280;35268;42.642;23.308;2024-01-30T07:56:08;95822.22;;;1.01;46.85
49393;BME280;35268;42.642;23.308;2024-01-30T07:58:33;95822.41;;;1.06;46.85
49393;BME280;35268;42.642;23.308;2024-01-30T08:00:59;95824.81;;;1.08;46.65
49393;BME280;35268;42.642;23.308;2024-01-30T08:03:25;95824.41;;;1.11;46.15
49393;BME280;35268;42.642;23.308;2024-01-30T08:05:51;95827.22;;;1.16;46.10
49393;BME280;35268;42.642;23.308;2024-01-30T08:08:17;95819.94;;;1.18;46.55
49393;BME280;35268;42.642;23.308;2024-01-30T08:10:42;95829.63;;;1.24;46.35
49393;BME280;35268;42.642;23.308;2024-01-30T08:13:07;95816.69;;;1.29;46.34
49393;BME280;35268;42.642;23.308;2024-01-30T08:15:34;95818.09;;;1.32;46.30
49393;BME280;35268;42.642;23.308;2024-01-30T08:18:00;95815.88;;;1.35;45.70
49393;BME280;35268;42.642;23.308;2024-01-30T08:20:25;95819.09;;;1.37;45.97
49393;BME280;35268;42.642;23.308;2024-01-30T08:22:51;95825.16;;;1.45;46.19
49393;BME280;35268;42.642;23.308;2024-01-30T08:25:17;95821.09;;;1.49;45.93
49393;BME280;35268;42.642;23.308;2024-01-30T08:27:42;95818.22;;;1.57;46.06
49393;BME280;35268;42.642;23.308;2024-01-30T08:30:08;95816.38;;;1.64;45.96
49393;BME280;35268;42.642;23.308;2024-01-30T08:32:34;95825.88;;;1.65;45.29
49393;BME280;35268;42.642;23.308;2024-01-30T08:34:59;95816.13;;;1.72;44.89
49393;BME280;35268;42.642;23.308;2024-01-30T08:37:29;95819.94;;;1.76;44.62
49393;BME280;35268;42.642;23.308;2024-01-30T08:39:54;95820.16;;;1.82;44.52
49393;BME280;35268;42.642;23.308;2024-01-30T08:42:20;95826.38;;;1.87;44.49
49393;BME280;35268;42.642;23.308;2024-01-30T08:44:51;95830.59;;;1.95;44.41
49393;BME280;35268;42.642;23.308;2024-01-30T08:47:17;95830.78;;;2.00;43.92
49393;BME280;35268;42.642;23.308;2024-01-30T08:49:44;95835.00;;;2.01;44.07
49393;BME280;35268;42.642;23.308;2024-01-30T08:52:10;95830.97;;;1.98;43.97
49393;BME280;35268;42.642;23.308;2024-01-30T08:54:36;95835.00;;;2.08;44.15
49393;BME280;35268;42.642;23.308;2024-01-30T08:57:01;95846.69;;;2.12;44.05
49393;BME280;35268;42.642;23.308;2024-01-30T08:59:27;95846.81;;;2.24;43.79
49393;BME280;35268;42.642;23.308;2024-01-30T09:01:52;95853.25;;;2.28;43.35
49393;BME280;35268;42.642;23.308;2024-01-30T09:04:20;95847.75;;;2.36;43.17
49393;BME280;35268;42.642;23.308;2024-01-30T09:06:46;95844.50;;;2.40;42.87
49393;BME280;35268;42.642;23.308;2024-01-30T09:09:11;95849.38;;;2.37;42.92
49393;BME280;35268;42.642;23.308;2024-01-30T09:11:37;95852.13;;;2.49;42.88
49393;BME280;35268;42.642;23.308;2024-01-30T09:14:02;95834.91;;;2.53;42.49
49393;BME280;35268;42.642;23.308;2024-01-30T09:16:28;95843.38;;;2.55;42.55
49393;BME280;35268;42.642;23.308;2024-01-30T09:18:53;95834.19;;;2.64;44.74
49393;BME280;35268;42.642;23.308;2024-01-30T09:21:19;95833.22;;;2.58;42.80
49393;BME280;35268;42.642;23.308;2024-01-30T09:23:44;95830.13;;;2.68;42.34
49393;BME280;35268;42.642;23.308;2024-01-30T09:26:10;95830.50;;;2.72;42.12
49393;BME280;35268;42.642;23.308;2024-01-30T09:28:35;95825.16;;;2.78;42.02
49393;BME280;35268;42.642;23.308;2024-01-30T09:31:01;95822.31;;;2.80;42.31
49393;BME280;35268;42.642;23.308;2024-01-30T09:33:26;95823.94;;;2.81;42.25
49393;BME280;35268;42.642;23.308;2024-01-30T09:35:52;95825.72;;;2.87;41.72
49393;BME280;35268;42.642;23.308;2024-01-30T09:38:17;95821.03;;;2.89;41.96
49393;BME280;35268;42.642;23.308;2024-01-30T09:40:42;95818.53;;;2.94;41.80
49393;BME280;35268;42.642;23.308;2024-01-30T09:43:11;95820.19;;;2.95;41.71
49393;BME280;35268;42.642;23.308;2024-01-30T09:45:39;95815.91;;;2.94;42.01
49393;BME280;35268;42.642;23.308;2024-01-30T09:48:07;95817.09;;;2.98;42.09
49393;BME280;35268;42.642;23.308;2024-01-30T09:50:34;95813.59;;;3.05;42.17
49393;BME280;35268;42.642;23.308;2024-01-30T09:53:01;95814.75;;;3.09;41.86
49393;BME280;35268;42.642;23.308;2024-01-30T09:55:27;95819.16;;;3.15;41.83
49393;BME280;35268;42.642;23.308;2024-01-30T09:57:52;95811.34;;;3.27;41.46
49393;BME280;35268;42.642;23.308;2024-01-30T10:00:18;95815.91;;;3.38;41.10
49393;BME280;35268;42.642;23.308;2024-01-30T10:02:43;95810.69;;;3.50;41.03
49393;BME280;35268;42.642;23.308;2024-01-30T10:05:11;95818.28;;;3.58;40.58
49393;BME280;35268;42.642;23.308;2024-01-30T10:07:50;95800.13;;;3.68;40.31
49393;BME280;35268;42.642;23.308;2024-01-30T10:10:15;95805.09;;;3.76;40.33
49393;BME280;35268;42.642;23.308;2024-01-30T10:12:41;95795.28;;;3.84;40.13
49393;BME280;35268;42.642;23.308;2024-01-30T10:15:07;95792.53;;;3.90;40.31
49393;BME280;35268;42.642;23.308;2024-01-30T10:17:33;95791.22;;;3.99;40.29
49393;BME280;35268;42.642;23.308;2024-01-30T10:20:04;95792.59;;;4.02;40.23
49393;BME280;35268;42.642;23.308;2024-01-30T10:22:30;95790.00;;;4.14;40.22
49393;BME280;35268;42.642;23.308;2024-01-30T10:24:56;95788.63;;;4.23;39.53
49393;BME280;35268;42.642;23.308;2024-01-30T10:27:27;95798.88;;;4.19;39.50
49393;BME280;35268;42.642;23.308;2024-01-30T10:29:55;95801.34;;;4.14;40.36
49393;BME280;35268;42.642;23.308;2024-01-30T10:32:20;95800.25;;;3.92;40.48
49393;BME280;35268;42.642;23.308;2024-01-30T10:34:46;95791.38;;;3.86;40.26
49393;BME280;35268;42.642;23.308;2024-01-30T10:37:12;95792.53;;;3.90;40.52
49393;BME280;35268;42.642;23.308;2024-01-30T10:39:41;95795.44;;;4.00;41.37
49393;BME280;35268;42.642;23.308;2024-01-30T10:42:15;95784.34;;;4.10;40.47
49393;BME280;35268;42.642;23.308;2024-01-30T10:45:06;95790.69;;;4.09;40.25
49393;BME280;35268;42.642;23.308;2024-01-30T10:47:34;95797.41;;;3.75;41.49
49393;BME280;35268;42.642;23.308;2024-01-30T10:50:02;95787.78;;;3.80;41.10
49393;BME280;35268;42.642;23.308;2024-01-30T10:52:28;95782.34;;;3.94;41.35
49393;BME280;35268;42.642;23.308;2024-01-30T10:54:55;95784.81;;;4.07;41.44
49393;BME280;35268;42.642;23.308;2024-01-30T10:57:25;95785.19;;;4.22;41.00
49393;BME280;35268;42.642;23.308;2024-01-30T10:59:56;95781.22;;;4.32;40.46
49393;BME280;35268;42.642;23.308;2024-01-30T11:02:23;95768.84;;;4.44;40.29
49393;BME280;35268;42.642;23.308;2024-01-30T11:04:56;95767.22;;;4.43;40.17
49393;BME280;35268;42.642;23.308;2024-01-30T11:07:27;95760.91;;;4.44;40.29
49393;BME280;35268;42.642;23.308;2024-01-30T11:10:00;95757.13;;;4.52;40.25
49393;BME280;35268;42.642;23.308;2024-01-30T11:12:27;95759.50;;;4.41;40.08
49393;BME280;35268;42.642;23.308;2024-01-30T11:15:15;95764.72;;;4.48;40.88
49393;BME280;35268;42.642;23.308;2024-01-30T11:17:53;95747.41;;;4.64;40.75
49393;BME280;35268;42.642;23.308;2024-01-30T11:20:25;95755.31;;;4.76;40.42
49393;BME280;35268;42.642;23.308;2024-01-30T11:22:52;95760.94;;;4.91;39.98
49393;BME280;35268;42.642;23.308;2024-01-30T11:25:20;95765.31;;;4.97;38.61
49393;BME280;35268;42.642;23.308;2024-01-30T11:27:47;95750.94;;;4.70;39.37
49393;BME280;35268;42.642;23.308;2024-01-30T11:35:24;95760.25;;;5.08;39.24
49393;BME280;35268;42.642;23.308;2024-01-30T11:37:49;95765.84;;;5.23;39.06
49393;BME280;35268;42.642;23.308;2024-01-30T11:40:16;95751.47;;;5.31;39.06
49393;BME280;35268;42.642;23.308;2024-01-30T11:42:42;95760.66;;;5.28;38.72
49393;BME280;35268;42.642;23.308;2024-01-30T11:45:08;95759.88;;;5.28;38.33
49393;BME280;35268;42.642;23.308;2024-01-30T11:47:35;95755.81;;;5.37;38.42
49393;BME280;35268;42.642;23.308;2024-01-30T11:50:02;95750.66;;;5.42;38.45
49393;BME280;35268;42.642;23.308;2024-01-30T11:52:29;95754.56;;;5.39;38.32
49393;BME280;35268;42.642;23.308;2024-01-30T11:54:54;95748.94;;;5.36;38.45
49393;BME280;35268;42.642;23.308;2024-01-30T11:57:20;95743.50;;;5.42;38.84
49393;BME280;35268;42.642;23.308;2024-01-30T11:59:45;95739.53;;;5.28;38.38
49393;BME280;35268;42.642;23.308;2024-01-30T12:02:15;95742.66;;;5.13;38.95
49393;BME280;35268;42.642;23.308;2024-01-30T12:04:41;95729.75;;;5.17;38.88
49393;BME280;35268;42.642;23.308;2024-01-30T12:07:06;95734.16;;;5.11;38.85
49393;BME280;35268;42.642;23.308;2024-01-30T12:09:32;95725.41;;;5.11;38.60
49393;BME280;35268;42.642;23.308;2024-01-30T12:11:59;95719.44;;;5.03;39.00
49393;BME280;35268;42.642;23.308;2024-01-30T12:14:25;95724.94;;;5.14;39.09
49393;BME280;35268;42.642;23.308;2024-01-30T12:16:51;95729.66;;;5.23;38.95
49393;BME280;35268;42.642;23.308;2024-01-30T12:19:26;95714.81;;;5.11;39.27
49393;BME280;35268;42.642;23.308;2024-01-30T12:21:57;95713.69;;;5.07;39.11
49393;BME280;35268;42.642;23.308;2024-01-30T12:24:27;95709.44;;;5.17;39.18
49393;BME280;35268;42.642;23.308;2024-01-30T12:26:59;95708.13;;;5.32;39.08
49393;BME280;35268;42.642;23.308;2024-01-30T12:29:25;95706.97;;;5.39;38.74
49393;BME280;35268;42.642;23.308;2024-01-30T12:31:53;95707.16;;;5.50;38.44
49393;BME280;35268;42.642;23.308;2024-01-30T12:34:20;95707.59;;;5.58;38.48
49393;BME280;35268;42.642;23.308;2024-01-30T12:36:47;95699.72;;;5.63;38.43
49393;BME280;35268;42.642;23.308;2024-01-30T12:39:14;95695.19;;;5.76;38.15
49393;BME280;35268;42.642;23.308;2024-01-30T12:41:40;95695.53;;;5.51;37.25
49393;BME280;35268;42.642;23.308;2024-01-30T12:44:06;95698.66;;;5.48;37.94
49393;BME280;35268;42.642;23.308;2024-01-30T12:46:34;95689.88;;;5.59;37.88
49393;BME280;35268;42.642;23.308;2024-01-30T12:49:00;95687.22;;;5.59;37.91
49393;BME280;35268;42.642;23.308;2024-01-30T12:51:25;95686.19;;;5.60;37.90
49393;BME280;35268;42.642;23.308;2024-01-30T12:53:51;95687.78;;;5.61;38.05
49393;BME280;35268;42.642;23.308;2024-01-30T12:56:16;95674.66;;;5.66;37.77
49393;BME280;35268;42.642;23.308;2024-01-30T12:58:42;95677.97;;;5.73;37.67